Time;durP1;ratioP1;P1;durP2;ratioP2;P2;SDS_P1;SDS_P2;PMS_P1;PMS_P2;Temp;Humidity;BMP_temperature;BMP_pressure;BME280_temperature;BME280_humidity;BME280_pressure;Samples;Min_cycle;Max_cycle;Signal;HPM_P1;HPM_P2
2021/05/18 00:00:23;;;;;;;14.73;6.83;;;11.80;72.50;;;;;;4938510;29;20177;-71
2021/05/18 00:02:50;;;;;;;12.43;7.27;;;11.80;72.40;;;;;;4956084;28;20507;-71
2021/05/18 00:05:17;;;;;;;14.10;7.20;;;11.80;72.50;;;;;;4955550;29;20512;-72
2021/05/18 00:07:53;;;;;;;14.37;8.10;;;11.80;72.70;;;;;;4955831;29;20419;-71
2021/05/18 00:13:04;;;;;;;16.00;8.33;;;11.90;72.90;;;;;;4955356;28;20535;-71
2021/05/18 00:15:30;;;;;;;14.57;6.80;;;11.90;72.80;;;;;;4938255;29;20508;-70
2021/05/18 00:17:56;;;;;;;12.83;7.00;;;11.90;72.80;;;;;;4955549;28;20417;-70
2021/05/18 00:20:21;;;;;;;13.13;6.50;;;11.90;72.80;;;;;;4971492;29;20241;-69
2021/05/18 00:22:48;;;;;;;13.50;7.53;;;11.90;72.60;;;;;;4961349;28;20663;-70
2021/05/18 00:25:14;;;;;;;12.03;7.30;;;11.90;72.60;;;;;;4955291;29;20165;-69
2021/05/18 00:27:41;;;;;;;12.43;6.87;;;11.90;72.40;;;;;;4955618;29;20413;-70
2021/05/18 00:30:10;;;;;;;12.60;7.40;;;11.90;72.60;;;;;;4955190;29;20409;-70
2021/05/18 00:32:36;;;;;;;10.80;6.10;;;11.90;72.70;;;;;;4955307;28;20428;-71
2021/05/18 00:35:03;;;;;;;9.67;6.57;;;11.90;72.80;;;;;;4955148;29;20476;-70
2021/05/18 00:37:29;;;;;;;10.00;6.73;;;11.90;73.00;;;;;;4938126;29;20417;-70
2021/05/18 00:39:55;;;;;;;11.80;6.67;;;11.90;73.20;;;;;;4955128;29;20500;-70
2021/05/18 00:42:23;;;;;;;18.33;8.00;;;11.90;73.60;;;;;;4955205;28;20189;-72
2021/05/18 00:44:50;;;;;;;11.73;6.37;;;11.90;73.70;;;;;;4955191;29;20264;-71
2021/05/18 00:47:17;;;;;;;12.87;7.57;;;11.90;73.70;;;;;;4937618;29;20415;-70
2021/05/18 00:49:42;;;;;;;14.13;6.87;;;11.90;73.70;;;;;;4938226;29;20424;-70
2021/05/18 00:52:09;;;;;;;14.30;7.67;;;11.90;74.00;;;;;;4955526;28;20437;-69
2021/05/18 00:54:44;;;;;;;12.70;7.10;;;11.90;74.10;;;;;;4937644;29;20432;-70
2021/05/18 01:00:15;;;;;;;13.67;7.57;;;11.90;74.40;;;;;;4895384;29;20964;-70
2021/05/18 01:02:41;;;;;;;12.00;7.30;;;11.90;74.70;;;;;;4879860;29;20428;-70
2021/05/18 01:05:16;;;;;;;15.80;8.03;;;11.90;74.90;;;;;;4922614;29;20423;-69
2021/05/18 01:07:41;;;;;;;11.57;7.50;;;11.90;75.10;;;;;;4954754;29;20268;-69
2021/05/18 01:10:08;;;;;;;16.43;8.00;;;11.90;75.40;;;;;;4937233;29;20507;-71
2021/05/18 01:12:33;;;;;;;20.37;7.93;;;11.80;75.40;;;;;;4954531;28;20287;-69
2021/05/18 01:14:59;;;;;;;10.07;6.63;;;11.90;75.80;;;;;;4954265;29;20405;-70
2021/05/18 01:17:26;;;;;;;14.10;7.10;;;11.90;75.80;;;;;;4954636;29;20401;-69
2021/05/18 01:19:52;;;;;;;12.73;6.97;;;11.90;76.00;;;;;;4970670;28;20231;-69
2021/05/18 01:22:18;;;;;;;14.53;7.57;;;11.80;76.10;;;;;;4974125;28;20524;-70
2021/05/18 01:24:44;;;;;;;14.70;6.87;;;11.80;76.10;;;;;;4973530;28;20173;-71
2021/05/18 01:27:09;;;;;;;11.30;7.67;;;11.80;76.20;;;;;;4972814;28;20427;-70
2021/05/18 01:29:36;;;;;;;7.83;6.60;;;11.80;77.30;;;;;;4956432;28;20283;-71
2021/05/18 01:32:07;;;;;;;11.50;6.73;;;11.80;76.70;;;;;;4992862;28;20442;-70
2021/05/18 01:34:33;;;;;;;12.13;5.77;;;11.80;76.80;;;;;;4973946;28;20183;-70
2021/05/18 01:36:59;;;;;;;8.47;5.87;;;11.70;77.80;;;;;;4974049;28;20458;-70
2021/05/18 01:45:09;;;;;;;8.50;5.50;;;11.70;77.00;;;;;;4971634;28;20923;-71
2021/05/18 01:47:35;;;;;;;9.37;5.67;;;11.70;77.10;;;;;;4973130;28;20832;-70
2021/05/18 01:50:02;;;;;;;9.47;5.90;;;11.70;77.20;;;;;;4973208;28;20411;-71
2021/05/18 01:52:29;;;;;;;7.93;5.40;;;11.70;77.30;;;;;;4955771;28;20189;-70
2021/05/18 01:54:54;;;;;;;13.50;4.90;;;11.70;77.50;;;;;;4973109;28;20438;-69
2021/05/18 01:57:21;;;;;;;9.70;5.07;;;11.70;77.90;;;;;;4939153;28;20200;-71
2021/05/18 01:59:56;;;;;;;7.00;4.67;;;11.70;78.20;;;;;;4955830;28;20451;-71
2021/05/18 02:02:24;;;;;;;9.07;5.20;;;11.70;78.60;;;;;;4971213;28;20479;-71
2021/05/18 02:05:00;;;;;;;6.33;4.60;;;11.70;79.00;;;;;;4973095;28;20412;-71
2021/05/18 02:07:38;;;;;;;5.70;3.70;;;11.60;79.60;;;;;;4972679;28;20407;-70
2021/05/18 02:10:10;;;;;;;5.33;3.80;;;11.60;80.10;;;;;;4972949;28;20404;-70
2021/05/18 02:12:38;;;;;;;8.33;4.13;;;11.50;80.50;;;;;;4971200;28;20494;-70
2021/05/18 02:16:03;;;;;;;11.47;4.60;;;11.50;80.70;;;;;;4955665;28;20503;-69
2021/05/18 02:21:13;;;;;;;7.10;4.33;;;11.50;81.40;;;;;;4972672;28;20416;-70
2021/05/18 02:26:25;;;;;;;5.63;4.10;;;11.40;81.80;;;;;;4973063;28;20482;-71
2021/05/18 02:28:56;;;;;;;10.70;3.67;;;11.40;81.90;;;;;;4971540;28;20416;-70
2021/05/18 02:31:23;;;;;;;11.40;4.27;;;11.40;82.20;;;;;;4972502;28;20416;-71
2021/05/18 02:33:53;;;;;;;10.80;3.90;;;11.40;82.40;;;;;;4971353;28;20299;-70
2021/05/18 02:36:25;;;;;;;5.57;3.87;;;11.50;82.20;;;;;;4953483;28;20452;-70
2021/05/18 02:38:51;;;;;;;5.10;3.77;;;11.40;81.90;;;;;;4972429;28;20407;-70
2021/05/18 02:41:19;;;;;;;8.90;4.23;;;11.40;81.90;;;;;;4954852;28;20427;-70
2021/05/18 02:43:57;;;;;;;6.70;4.10;;;11.40;81.90;;;;;;4955969;28;20983;-70
2021/05/18 02:49:09;;;;;;;7.23;4.20;;;11.40;81.60;;;;;;4955043;28;20801;-70
2021/05/18 02:51:38;;;;;;;7.23;3.90;;;11.40;81.70;;;;;;4968983;28;20419;-69
2021/05/18 02:54:05;;;;;;;6.90;3.27;;;11.40;81.70;;;;;;4972237;28;20424;-69
2021/05/18 03:01:31;;;;;;;9.10;3.53;;;11.40;82.10;;;;;;4972452;28;20790;-69
2021/05/18 03:03:57;;;;;;;3.63;2.90;;;11.40;80.90;;;;;;4971958;28;20424;-70
2021/05/18 03:06:24;;;;;;;5.30;2.73;;;11.40;80.80;;;;;;4970288;28;21012;-70
2021/05/18 03:08:49;;;;;;;7.80;3.70;;;11.40;80.60;;;;;;4972181;28;20501;-70
2021/05/18 03:11:16;;;;;;;6.90;3.43;;;11.40;80.30;;;;;;4970631;28;20854;-70
2021/05/18 03:13:42;;;;;;;7.23;3.70;;;11.40;80.30;;;;;;4954837;28;20447;-70
2021/05/18 03:16:07;;;;;;;6.23;3.23;;;11.40;80.50;;;;;;4954522;28;20455;-70
2021/05/18 03:18:33;;;;;;;8.00;2.73;;;11.40;80.20;;;;;;4971792;28;20416;-70
2021/05/18 03:20:59;;;;;;;8.10;3.60;;;11.40;79.90;;;;;;4954688;28;20771;-70
2021/05/18 03:23:25;;;;;;;5.73;2.80;;;11.40;79.90;;;;;;4962578;28;20435;-69
2021/05/18 03:25:51;;;;;;;6.90;3.10;;;11.40;79.90;;;;;;4981418;28;20478;-70
2021/05/18 03:28:17;;;;;;;7.27;3.60;;;11.30;79.60;;;;;;4972316;28;20196;-70
2021/05/18 03:30:51;;;;;;;5.77;2.90;;;11.30;79.50;;;;;;4972656;28;21077;-70
2021/05/18 03:36:01;;;;;;;7.73;4.17;;;11.30;79.00;;;;;;4973254;28;20506;-71
2021/05/18 03:38:43;;;;;;;11.30;3.30;;;11.30;79.20;;;;;;4972617;28;20456;-70
2021/05/18 03:41:19;;;;;;;6.03;3.40;;;11.30;78.90;;;;;;4972534;28;20767;-70
2021/05/18 04:18:29;;;;;;;6.70;3.67;;;11.30;77.00;;;;;;4975030;28;20921;-70
2021/05/18 04:21:08;;;;;;;6.20;2.77;;;11.30;77.10;;;;;;4976362;28;20426;-70
2021/05/18 04:24:39;;;;;;;6.77;3.17;;;11.30;77.10;;;;;;4976245;28;20965;-70
2021/05/18 04:43:18;;;;;;;9.33;3.50;;;11.60;76.30;;;;;;4970950;28;20440;-69
2021/05/18 04:48:27;;;;;;;12.80;3.90;;;11.60;76.00;;;;;;4955088;29;20424;-70
2021/05/18 05:01:37;;;;;;;9.37;3.87;;;11.70;75.80;;;;;;4954779;28;20408;-70
2021/05/18 05:06:42;;;;;;;6.40;2.93;;;11.70;75.80;;;;;;4954087;29;20433;-69
2021/05/18 05:14:21;;;;;;;8.13;3.50;;;11.70;75.70;;;;;;4954605;29;20713;-70
2021/05/18 05:16:47;;;;;;;13.93;4.30;;;11.70;75.80;;;;;;4953966;29;20460;-71
2021/05/18 05:19:13;;;;;;;4.97;3.57;;;11.80;75.60;;;;;;4937387;29;20425;-70
2021/05/18 05:21:39;;;;;;;8.90;3.90;;;11.80;75.70;;;;;;4954700;29;20424;-68
2021/05/18 05:24:06;;;;;;;14.23;5.40;;;11.90;75.60;;;;;;4954605;28;20968;-68
2021/05/18 05:26:34;;;;;;;8.40;4.00;;;12.00;75.50;;;;;;4941108;29;20425;-69
2021/05/18 05:29:00;;;;;;;17.63;4.97;;;12.10;75.10;;;;;;4935413;29;20420;-69
2021/05/18 05:31:26;;;;;;;9.10;3.50;;;12.20;74.30;;;;;;4950741;29;20433;-71
2021/05/18 05:33:52;;;;;;;11.80;3.57;;;12.30;74.50;;;;;;4956754;28;20794;-69
2021/05/18 05:36:17;;;;;;;8.67;3.23;;;12.30;73.60;;;;;;4944421;28;20631;-69
2021/05/18 05:38:43;;;;;;;10.93;3.83;;;12.40;73.60;;;;;;4938801;29;20409;-69
2021/05/18 05:41:09;;;;;;;8.53;4.00;;;12.40;73.40;;;;;;4946781;29;20267;-70
2021/05/18 05:43:35;;;;;;;11.73;4.00;;;12.40;72.60;;;;;;4953398;28;20635;-69
2021/05/18 05:46:00;;;;;;;17.10;5.03;;;12.40;72.70;;;;;;4954032;29;20654;-69
2021/05/18 05:48:26;;;;;;;5.77;2.60;;;12.40;72.80;;;;;;4950564;28;20763;-68
2021/05/18 05:50:52;;;;;;;10.03;2.50;;;12.40;73.40;;;;;;4934558;29;20193;-68
2021/05/18 05:53:17;;;;;;;7.60;2.20;;;12.40;74.10;;;;;;4950736;28;20288;-71
2021/05/18 05:55:43;;;;;;;5.30;2.47;;;12.30;72.50;;;;;;4952943;28;20292;-69
2021/05/18 05:58:09;;;;;;;5.83;2.70;;;12.20;74.00;;;;;;4966980;29;20169;-71
2021/05/18 06:00:35;;;;;;;7.70;2.53;;;12.20;73.30;;;;;;4962959;29;20177;-71
2021/05/18 06:03:00;;;;;;;5.23;3.47;;;12.20;74.20;;;;;;4954881;28;20351;-70
2021/05/18 06:05:26;;;;;;;8.60;2.40;;;12.20;75.00;;;;;;4953076;29;20265;-72
2021/05/18 06:07:54;;;;;;;7.20;2.97;;;12.20;76.00;;;;;;4945322;29;20161;-69
2021/05/18 06:10:28;;;;;;;10.27;4.40;;;12.10;76.50;;;;;;4943047;29;20182;-69
2021/05/18 06:29:27;;;;;;;7.63;2.77;;;12.00;79.20;;;;;;4952647;28;20165;-72
2021/05/18 06:48:03;;;;;;;6.50;2.90;;;11.40;85.40;;;;;;4944257;29;20501;-71
2021/05/18 06:50:29;;;;;;;7.80;3.13;;;11.30;85.40;;;;;;4934519;28;20544;-71
2021/05/18 06:52:56;;;;;;;7.60;3.80;;;11.40;85.90;;;;;;4943699;29;20441;-71
2021/05/18 06:55:31;;;;;;;7.17;3.40;;;11.40;86.30;;;;;;4945069;28;20422;-70
2021/05/18 06:58:03;;;;;;;7.10;4.20;;;11.40;86.50;;;;;;4942748;29;20479;-70
2021/05/18 07:00:29;;;;;;;11.23;4.97;;;11.50;86.80;;;;;;4944877;28;20500;-70
2021/05/18 07:02:57;;;;;;;9.40;4.53;;;11.60;87.20;;;;;;4942839;29;20548;-70
2021/05/18 07:05:38;;;;;;;7.53;3.43;;;11.70;87.10;;;;;;4944120;28;20174;-70
2021/05/18 07:10:44;;;;;;;7.73;5.03;;;11.90;86.70;;;;;;4948471;28;20422;-70
2021/05/18 07:13:10;;;;;;;11.10;5.17;;;11.90;86.60;;;;;;4948426;28;20487;-70
2021/05/18 07:15:38;;;;;;;9.30;5.93;;;12.00;87.00;;;;;;4943409;28;21257;-70
2021/05/18 07:18:04;;;;;;;6.33;4.53;;;12.20;86.80;;;;;;4931644;29;20479;-71
2021/05/18 07:20:31;;;;;;;10.70;6.23;;;12.20;86.20;;;;;;4944444;28;20421;-70
2021/05/18 07:23:00;;;;;;;9.50;4.63;;;12.30;86.80;;;;;;4943970;28;20540;-70
2021/05/18 07:25:26;;;;;;;7.67;4.90;;;12.40;86.00;;;;;;4954963;28;20436;-69
2021/05/18 07:27:51;;;;;;;10.33;5.47;;;12.50;86.10;;;;;;4941960;29;20942;-69
2021/05/18 07:30:18;;;;;;;8.27;5.17;;;12.70;85.20;;;;;;4937886;29;20173;-70
2021/05/18 07:32:44;;;;;;;11.20;4.70;;;12.90;84.30;;;;;;4954380;28;20822;-69
2021/05/18 07:35:11;;;;;;;8.17;4.80;;;13.10;84.40;;;;;;4935787;29;20413;-71
2021/05/18 07:37:39;;;;;;;12.70;5.63;;;13.50;85.00;;;;;;4953033;28;20169;-78
2021/05/18 07:40:07;;;;;;;6.53;5.33;;;14.20;81.50;;;;;;4951410;29;20439;-69
2021/05/18 07:42:33;;;;;;;7.23;4.90;;;14.70;77.10;;;;;;4953656;29;20432;-71
2021/05/18 07:45:00;;;;;;;8.33;5.60;;;15.20;77.10;;;;;;4962087;28;20933;-71
2021/05/18 07:47:29;;;;;;;7.03;4.30;;;15.60;73.60;;;;;;4949481;28;20204;-71
2021/05/18 07:50:02;;;;;;;11.53;6.00;;;16.20;73.70;;;;;;4952299;29;20926;-72
2021/05/18 08:05:47;;;;;;;11.27;5.70;;;16.10;65.30;;;;;;4948363;28;20409;-70
2021/05/18 08:08:13;;;;;;;12.47;6.37;;;15.70;68.40;;;;;;4936042;29;20441;-69
2021/05/18 08:10:48;;;;;;;10.50;7.97;;;15.40;69.50;;;;;;4949153;28;20452;-71
2021/05/18 08:13:19;;;;;;;13.20;7.83;;;15.30;70.00;;;;;;4947226;29;20211;-70
2021/05/18 08:16:12;;;;;;;10.53;7.33;;;15.10;71.30;;;;;;4946510;29;20555;-72
2021/05/18 10:26:37;;;;;;;5.50;4.47;;;26.50;36.80;;;;;;4944732;28;20428;-71
2021/05/18 10:36:39;;;;;;;11.73;5.50;;;20.60;47.40;;;;;;4948104;29;20424;-71
2021/05/18 10:39:31;;;;;;;7.60;4.03;;;19.80;48.20;;;;;;4947597;28;20177;-72
2021/05/18 10:42:12;;;;;;;5.30;3.90;;;18.60;51.10;;;;;;4942078;28;20789;-71
2021/05/18 10:44:54;;;;;;;7.43;3.67;;;17.90;53.30;;;;;;4924331;28;20417;-71
2021/05/18 10:47:43;;;;;;;7.60;4.57;;;18.70;53.60;;;;;;4934443;28;20452;-71
2021/05/18 10:50:12;;;;;;;4.20;2.80;;;20.00;50.80;;;;;;4949243;28;20888;-71
2021/05/18 10:52:38;;;;;;;2.90;2.60;;;20.30;47.40;;;;;;4948860;28;20973;-71
2021/05/18 10:55:08;;;;;;;4.73;2.80;;;20.10;47.80;;;;;;4945701;29;20787;-72
2021/05/18 10:57:33;;;;;;;5.70;2.77;;;20.20;47.00;;;;;;4947260;28;20515;-71
2021/05/18 11:00:05;;;;;;;7.77;3.93;;;20.10;47.30;;;;;;4931636;29;20434;-71
2021/05/18 11:02:38;;;;;;;4.23;2.80;;;19.60;48.00;;;;;;4953687;28;20444;-73
2021/05/18 11:05:15;;;;;;;4.10;3.10;;;19.40;48.60;;;;;;4950471;29;20428;-72
2021/05/18 11:07:45;;;;;;;5.03;2.93;;;19.00;49.20;;;;;;4940842;28;20466;-70
2021/05/18 11:10:19;;;;;;;7.80;3.60;;;18.90;49.90;;;;;;4956697;29;20409;-72
2021/05/18 11:12:51;;;;;;;3.80;3.00;;;18.60;50.10;;;;;;4956860;28;20448;-72
2021/05/18 11:15:21;;;;;;;3.90;3.50;;;18.30;51.90;;;;;;4965304;28;20492;-71
2021/05/18 11:17:52;;;;;;;6.33;3.80;;;18.50;51.60;;;;;;4955679;29;20456;-71
2021/05/18 11:20:26;;;;;;;5.93;3.20;;;18.70;51.20;;;;;;4956350;29;20422;-70
2021/05/18 11:25:48;;;;;;;3.80;2.77;;;18.90;51.30;;;;;;4954612;29;20517;-71
2021/05/18 11:28:36;;;;;;;2.93;2.53;;;19.10;49.50;;;;;;4949811;29;20420;-71
2021/05/18 11:31:08;;;;;;;7.97;3.00;;;18.90;49.60;;;;;;4955767;29;20452;-72
2021/05/18 11:33:36;;;;;;;3.23;2.60;;;18.60;50.10;;;;;;4955567;28;20451;-71
2021/05/18 11:36:10;;;;;;;5.80;2.83;;;18.40;51.40;;;;;;4922067;29;20428;-73
2021/05/18 11:38:40;;;;;;;10.30;3.80;;;18.10;51.40;;;;;;4954586;28;20448;-72
2021/05/18 11:41:06;;;;;;;6.03;2.50;;;17.90;51.90;;;;;;4956202;29;20423;-71
2021/05/18 11:43:37;;;;;;;4.47;2.73;;;17.70;50.20;;;;;;4954842;28;20554;-71
2021/05/18 11:46:08;;;;;;;6.90;2.73;;;17.60;50.30;;;;;;4955096;29;20409;-70
2021/05/18 11:48:34;;;;;;;4.97;2.70;;;17.30;51.30;;;;;;4955314;29;20424;-70
2021/05/18 11:51:12;;;;;;;6.53;3.20;;;17.20;52.20;;;;;;4955302;29;20426;-71
2021/05/18 11:53:49;;;;;;;4.80;3.10;;;17.10;51.90;;;;;;4938461;29;20455;-71
2021/05/18 11:56:26;;;;;;;4.80;2.57;;;16.90;53.10;;;;;;4954461;29;20984;-70
2021/05/18 11:59:06;;;;;;;5.53;3.20;;;17.10;52.60;;;;;;4954991;29;20938;-71
2021/05/18 12:01:50;;;;;;;12.43;4.63;;;17.40;52.00;;;;;;4955181;29;20423;-71
2021/05/18 12:04:18;;;;;;;5.00;3.47;;;17.80;52.20;;;;;;4954454;29;20420;-71
2021/05/18 12:07:13;;;;;;;5.13;3.80;;;18.10;51.00;;;;;;4941896;29;20889;-71
2021/05/18 12:09:44;;;;;;;5.37;3.50;;;18.20;51.00;;;;;;4936687;29;20503;-71
2021/05/18 12:12:16;;;;;;;35.13;18.20;;;18.20;50.80;;;;;;4937566;29;20471;-70
2021/05/18 12:14:50;;;;;;;11.03;6.40;;;18.10;50.60;;;;;;4953912;29;20442;-72
2021/05/18 12:17:26;;;;;;;12.80;5.97;;;17.80;50.30;;;;;;4954642;29;20463;-71
2021/05/18 12:19:51;;;;;;;5.87;3.30;;;17.60;51.30;;;;;;4955608;29;20444;-71
2021/05/18 12:22:26;;;;;;;7.57;4.20;;;17.60;51.60;;;;;;4954660;28;20479;-72
2021/05/18 12:24:54;;;;;;;43.47;23.20;;;17.70;50.50;;;;;;4938773;29;20197;-72
2021/05/18 12:27:20;;;;;;;3.57;2.40;;;17.90;51.20;;;;;;4953891;29;21218;-71
2021/05/18 12:29:55;;;;;;;3.20;2.10;;;18.20;49.50;;;;;;4955851;29;20475;-72
2021/05/18 12:32:22;;;;;;;7.87;3.33;;;18.60;49.30;;;;;;4956549;28;21254;-71
2021/05/18 12:34:52;;;;;;;5.40;3.37;;;18.80;48.60;;;;;;4954632;28;20435;-74
2021/05/18 12:37:35;;;;;;;7.73;2.93;;;19.10;47.90;;;;;;4936943;29;20464;-71
2021/05/18 12:40:10;;;;;;;6.40;2.70;;;19.10;47.30;;;;;;4954664;29;20412;-71
2021/05/18 12:42:37;;;;;;;6.97;2.90;;;19.10;47.20;;;;;;4955471;28;20536;-73
2021/05/18 12:45:08;;;;;;;7.50;3.23;;;19.10;47.20;;;;;;4937698;29;20771;-72
2021/05/18 12:47:35;;;;;;;4.30;3.40;;;19.00;47.40;;;;;;4955256;29;20471;-75
2021/05/18 12:50:09;;;;;;;16.90;6.47;;;19.00;47.10;;;;;;4958215;29;20420;-72
2021/05/18 12:52:35;;;;;;;6.37;3.40;;;18.80;48.10;;;;;;4957053;28;20771;-71
2021/05/18 12:55:01;;;;;;;5.63;3.40;;;18.70;49.00;;;;;;4975841;28;20415;-71
2021/05/18 12:57:28;;;;;;;5.00;3.77;;;18.60;49.30;;;;;;4970372;28;20213;-71
2021/05/18 13:00:15;;;;;;;6.03;4.30;;;18.50;48.70;;;;;;4955804;29;20786;-71
2021/05/18 13:02:47;;;;;;;6.57;4.00;;;18.20;49.80;;;;;;4937805;29;20495;-73
2021/05/18 13:05:18;;;;;;;5.77;4.20;;;18.20;51.10;;;;;;4948738;29;20467;-72
2021/05/18 13:08:05;;;;;;;7.93;3.70;;;18.30;51.70;;;;;;4954573;29;20409;-71
2021/05/18 13:13:28;;;;;;;15.30;10.93;;;18.90;49.50;;;;;;4901842;29;20470;-72
2021/05/18 13:16:12;;;;;;;4.47;3.50;;;19.10;48.70;;;;;;4938945;29;20898;-71
2021/05/18 13:18:50;;;;;;;4.47;3.37;;;19.30;46.40;;;;;;4953450;29;20849;-72
2021/05/18 13:21:26;;;;;;;6.23;4.07;;;19.10;46.60;;;;;;4954885;29;20405;-72
2021/05/18 13:26:31;;;;;;;9.40;4.90;;;18.40;47.50;;;;;;4937862;29;20440;-71
2021/05/18 13:29:03;;;;;;;8.00;5.53;;;17.60;50.00;;;;;;4926087;29;20942;-70
2021/05/18 13:31:30;;;;;;;11.40;6.73;;;16.70;52.40;;;;;;4940694;29;20431;-72
2021/05/18 13:33:56;;;;;;;9.40;6.60;;;15.80;55.00;;;;;;4953697;28;20467;-73
2021/05/18 13:36:22;;;;;;;6.27;5.63;;;15.20;57.30;;;;;;4936901;29;21004;-70
2021/05/18 13:38:48;;;;;;;11.60;6.67;;;14.70;58.60;;;;;;4936426;29;20208;-72
2021/05/18 13:41:13;;;;;;;16.03;9.73;;;14.40;60.00;;;;;;4955335;29;20261;-71
2021/05/18 13:43:39;;;;;;;10.00;7.30;;;14.30;62.30;;;;;;4948802;29;20212;-72
2021/05/18 13:46:05;;;;;;;7.17;5.57;;;14.40;63.60;;;;;;4965833;29;20170;-70
2021/05/18 13:48:31;;;;;;;7.60;5.37;;;14.70;63.90;;;;;;4964799;29;20432;-71
2021/05/18 13:50:58;;;;;;;9.47;6.40;;;15.10;64.20;;;;;;4957177;29;20180;-71
2021/05/18 13:53:23;;;;;;;6.80;6.10;;;15.70;61.80;;;;;;4945534;29;20456;-73
2021/05/18 13:55:49;;;;;;;7.97;6.67;;;16.10;60.80;;;;;;4957274;28;20458;-71
2021/05/18 13:58:17;;;;;;;11.03;6.60;;;16.50;59.90;;;;;;4953606;29;20196;-72
2021/05/18 14:00:43;;;;;;;11.67;6.80;;;16.80;59.90;;;;;;4954138;29;20433;-72
2021/05/18 14:03:09;;;;;;;7.73;6.60;;;17.00;59.70;;;;;;4952964;29;20524;-71
2021/05/18 14:05:34;;;;;;;6.63;5.63;;;17.30;60.10;;;;;;4952452;29;20425;-74
2021/05/18 14:08:35;;;;;;;8.40;7.60;;;17.40;58.20;;;;;;4952447;29;20684;-73
2021/05/18 14:11:11;;;;;;;11.27;6.60;;;17.50;58.90;;;;;;4951773;28;20171;-72
2021/05/18 14:13:40;;;;;;;7.13;6.43;;;17.60;57.80;;;;;;4953148;28;20456;-71
2021/05/18 14:16:06;;;;;;;7.87;6.50;;;17.50;56.90;;;;;;4934992;29;20463;-72
2021/05/18 14:18:33;;;;;;;10.50;8.87;;;17.40;56.90;;;;;;4935459;29;20736;-72
2021/05/18 14:21:01;;;;;;;7.30;5.33;;;17.40;57.00;;;;;;4952761;29;20428;-72
2021/05/18 14:23:32;;;;;;;6.90;6.20;;;17.40;56.70;;;;;;4953467;28;20433;-71
2021/05/18 14:26:01;;;;;;;6.00;5.40;;;17.30;56.10;;;;;;4951474;29;20436;-73
2021/05/18 14:28:26;;;;;;;10.33;6.90;;;17.20;55.90;;;;;;4952117;29;20483;-71
2021/05/18 14:30:52;;;;;;;6.47;5.37;;;17.00;56.80;;;;;;4934983;29;20425;-70
2021/05/18 14:33:18;;;;;;;6.50;5.43;;;16.90;56.70;;;;;;4952767;28;20192;-71
2021/05/18 14:35:44;;;;;;;7.70;5.47;;;16.80;57.70;;;;;;4951148;28;20471;-69
2021/05/18 14:38:15;;;;;;;7.97;6.60;;;16.70;56.60;;;;;;4952822;29;20535;-72
2021/05/18 14:40:52;;;;;;;7.60;6.20;;;16.50;56.90;;;;;;4950452;29;20432;-70
2021/05/18 14:46:18;;;;;;;10.50;7.77;;;16.00;59.10;;;;;;4964705;28;21172;-71
2021/05/18 14:54:20;;;;;;;9.13;7.37;;;15.20;60.60;;;;;;4966620;28;20818;-71
2021/05/18 14:56:45;;;;;;;11.23;7.37;;;15.00;61.90;;;;;;4952588;29;20449;-71
2021/05/18 14:59:11;;;;;;;8.57;6.97;;;14.90;61.80;;;;;;4953137;29;20415;-70
2021/05/18 15:01:37;;;;;;;10.07;6.97;;;14.80;62.10;;;;;;4951463;29;20169;-76
2021/05/18 15:04:03;;;;;;;7.43;6.20;;;14.60;63.40;;;;;;4953332;28;20277;-70
2021/05/18 15:06:31;;;;;;;8.23;6.23;;;14.50;64.00;;;;;;4952731;29;20177;-72
2021/05/18 15:08:57;;;;;;;7.43;5.30;;;14.50;65.20;;;;;;4953399;29;20631;-70
2021/05/18 15:11:22;;;;;;;14.53;7.00;;;14.50;65.40;;;;;;4935008;29;20420;-71
2021/05/18 15:13:48;;;;;;;11.53;8.07;;;14.50;65.60;;;;;;4936582;29;20211;-73
2021/05/18 15:16:14;;;;;;;7.17;5.93;;;14.50;66.10;;;;;;4952754;29;20201;-72
2021/05/18 15:18:39;;;;;;;10.97;6.90;;;14.50;66.40;;;;;;4954551;29;20177;-73
2021/05/18 15:21:05;;;;;;;17.93;12.60;;;14.50;64.70;;;;;;4955096;28;20220;-72
2021/05/18 15:23:31;;;;;;;8.33;4.87;;;14.50;64.70;;;;;;4936781;29;20177;-73
2021/05/18 15:25:57;;;;;;;6.10;5.10;;;14.50;61.70;;;;;;4952623;29;20253;-74
2021/05/18 15:28:23;;;;;;;9.13;6.87;;;14.40;63.60;;;;;;4952769;29;20177;-76
2021/05/18 15:30:49;;;;;;;8.83;5.77;;;14.30;64.80;;;;;;4949636;28;20423;-72
2021/05/18 15:33:14;;;;;;;9.10;5.70;;;14.30;65.50;;;;;;4951955;28;20627;-74
2021/05/18 15:35:40;;;;;;;9.63;4.80;;;14.20;65.90;;;;;;4934359;29;20181;-75
2021/05/18 15:38:06;;;;;;;6.60;5.20;;;14.20;66.10;;;;;;4941630;29;20170;-73
2021/05/18 15:40:33;;;;;;;7.73;5.63;;;14.20;65.40;;;;;;4934353;29;20444;-73
2021/05/18 15:42:58;;;;;;;7.47;5.63;;;14.20;66.10;;;;;;4933463;29;20485;-72
2021/05/18 15:45:24;;;;;;;6.70;5.43;;;14.20;64.60;;;;;;4933647;29;20803;-71
2021/05/18 15:47:50;;;;;;;7.13;5.20;;;14.20;64.10;;;;;;4937393;29;20552;-70
2021/05/18 15:50:15;;;;;;;7.57;5.50;;;14.10;64.50;;;;;;4954523;28;20253;-73
2021/05/18 15:52:41;;;;;;;9.63;5.80;;;14.20;64.50;;;;;;4941517;29;20204;-73
2021/05/18 15:55:08;;;;;;;6.70;5.70;;;14.10;64.60;;;;;;4957998;28;20256;-73
2021/05/18 15:57:34;;;;;;;9.10;5.90;;;14.10;64.60;;;;;;4954703;29;21262;-72
2021/05/18 15:59:59;;;;;;;27.50;21.30;;;14.10;65.20;;;;;;4955320;29;20563;-72
2021/05/18 16:02:25;;;;;;;7.33;6.00;;;14.20;65.90;;;;;;4940695;29;20627;-74
2021/05/18 16:04:51;;;;;;;9.60;4.60;;;14.20;65.00;;;;;;4954819;29;20188;-71
2021/05/18 16:07:18;;;;;;;8.30;6.23;;;14.10;64.80;;;;;;4956556;29;20469;-72
2021/05/18 16:09:44;;;;;;;5.73;5.13;;;13.90;64.40;;;;;;4954565;29;20189;-74
2021/05/18 16:12:11;;;;;;;8.93;6.50;;;13.90;65.60;;;;;;4937669;28;20543;-74
2021/05/18 16:14:37;;;;;;;10.23;5.70;;;13.90;65.80;;;;;;4954634;29;20462;-72
2021/05/18 16:17:03;;;;;;;12.10;10.23;;;14.00;65.50;;;;;;4939009;29;20445;-73
2021/05/18 16:19:29;;;;;;;7.80;7.00;;;14.10;66.40;;;;;;4955942;28;20922;-72
2021/05/18 16:21:55;;;;;;;8.93;6.90;;;14.10;66.80;;;;;;4957465;28;20806;-73
2021/05/18 16:24:23;;;;;;;8.80;5.50;;;14.30;67.80;;;;;;4958635;29;20401;-71
2021/05/18 16:26:50;;;;;;;6.13;5.53;;;14.40;67.10;;;;;;4940082;29;20413;-72
2021/05/18 16:29:16;;;;;;;7.07;5.47;;;14.50;66.70;;;;;;4956979;29;20424;-73
2021/05/18 16:31:43;;;;;;;9.17;5.70;;;14.70;65.70;;;;;;4958318;28;20435;-74
2021/05/18 16:34:08;;;;;;;7.67;5.43;;;14.80;63.80;;;;;;4974945;28;20432;-73
2021/05/18 16:36:52;;;;;;;7.87;5.70;;;14.80;63.80;;;;;;4961721;28;20615;-73
2021/05/18 16:39:22;;;;;;;7.00;5.70;;;14.80;64.10;;;;;;4937331;28;20162;-73
2021/05/18 16:41:48;;;;;;;6.43;5.00;;;14.70;63.60;;;;;;4942642;28;20666;-73
2021/05/18 16:44:15;;;;;;;6.30;5.40;;;14.60;63.20;;;;;;4957695;28;20821;-72
2021/05/18 16:46:40;;;;;;;7.63;5.53;;;14.60;65.70;;;;;;4974688;28;20495;-73
2021/05/18 16:49:07;;;;;;;21.83;14.60;;;14.70;64.60;;;;;;4974535;28;20168;-72
2021/05/18 16:51:37;;;;;;;9.83;6.53;;;14.70;66.10;;;;;;4974917;28;20665;-72
2021/05/18 16:54:03;;;;;;;12.30;6.63;;;14.80;63.80;;;;;;4974294;28;20440;-72
2021/05/18 16:56:29;;;;;;;8.30;5.53;;;15.00;63.70;;;;;;4974622;28;20460;-73
2021/05/18 16:58:55;;;;;;;7.37;4.97;;;15.20;61.30;;;;;;4938760;29;20460;-72
2021/05/18 17:01:21;;;;;;;8.53;5.30;;;15.20;60.50;;;;;;4955736;29;20173;-71
2021/05/18 17:03:47;;;;;;;10.50;6.07;;;15.10;61.00;;;;;;4938449;29;20670;-74
2021/05/18 17:06:14;;;;;;;7.53;5.13;;;15.10;60.90;;;;;;4955709;29;20427;-72
2021/05/18 17:08:41;;;;;;;5.80;5.20;;;15.20;60.50;;;;;;4937894;29;20420;-72
2021/05/18 17:11:08;;;;;;;15.37;9.33;;;15.10;59.10;;;;;;4955044;29;20416;-71
2021/05/18 17:13:34;;;;;;;7.93;4.90;;;14.90;59.40;;;;;;4937712;29;20954;-71
2021/05/18 17:16:00;;;;;;;11.93;7.77;;;14.80;60.20;;;;;;4954724;28;20452;-74
2021/05/18 17:18:27;;;;;;;13.00;7.63;;;14.70;60.00;;;;;;4939249;29;20421;-71
2021/05/18 17:20:53;;;;;;;5.90;5.27;;;14.50;59.70;;;;;;4955213;29;20822;-71
2021/05/18 17:23:19;;;;;;;13.27;6.50;;;14.40;61.30;;;;;;4954994;28;20515;-71
2021/05/18 17:25:44;;;;;;;8.47;5.00;;;14.30;62.50;;;;;;4954664;29;20223;-71
2021/05/18 17:28:10;;;;;;;6.03;4.90;;;14.20;62.10;;;;;;4954649;29;20903;-72
2021/05/18 17:30:36;;;;;;;6.13;4.63;;;14.10;61.00;;;;;;4955164;29;20157;-72
2021/05/18 17:33:02;;;;;;;7.03;5.67;;;14.00;61.70;;;;;;4953879;28;20697;-73
2021/05/18 17:35:28;;;;;;;5.80;4.10;;;14.00;62.50;;;;;;4954011;29;20284;-71
2021/05/18 17:37:54;;;;;;;6.13;4.90;;;13.90;62.20;;;;;;4955207;29;20548;-72
2021/05/18 17:40:20;;;;;;;5.60;4.57;;;14.00;62.30;;;;;;4955262;28;20173;-71
2021/05/18 17:42:46;;;;;;;14.40;8.40;;;14.00;61.70;;;;;;4937466;29;20453;-72
2021/05/18 17:45:14;;;;;;;7.67;4.80;;;14.00;61.50;;;;;;4955737;29;20417;-73
2021/05/18 17:47:41;;;;;;;6.27;4.90;;;14.10;61.70;;;;;;4953956;28;20169;-72
2021/05/18 17:50:09;;;;;;;9.10;4.80;;;14.00;61.10;;;;;;4937709;29;20440;-72
2021/05/18 17:52:35;;;;;;;4.40;4.00;;;14.00;61.50;;;;;;4937458;29;20448;-70